sensor_id;sensor_type;location;lat;lon;timestamp;P1;durP1;ratioP1;P2;durP2;ratioP2
71763;SDS011;59602;52.142;5.408;2023-08-12T00:01:52;4.33;;;1.87;;
71763;SDS011;59602;52.142;5.408;2023-08-12T00:04:18;5.28;;;2.03;;
71763;SDS011;59602;52.142;5.408;2023-08-12T00:06:47;6.05;;;1.42;;
71763;SDS011;59602;52.142;5.408;2023-08-12T00:09:14;3.30;;;1.73;;
71763;SDS011;59602;52.142;5.408;2023-08-12T00:11:41;2.80;;;1.70;;
71763;SDS011;59602;52.142;5.408;2023-08-12T00:14:08;4.60;;;1.77;;
71763;SDS011;59602;52.142;5.408;2023-08-12T00:16:35;4.68;;;1.70;;
71763;SDS011;59602;52.142;5.408;2023-08-12T00:19:01;6.53;;;1.80;;
71763;SDS011;59602;52.142;5.408;2023-08-12T00:21:29;4.53;;;1.90;;
71763;SDS011;59602;52.142;5.408;2023-08-12T00:23:56;5.55;;;2.22;;
71763;SDS011;59602;52.142;5.408;2023-08-12T00:26:22;4.60;;;1.83;;
71763;SDS011;59602;52.142;5.408;2023-08-12T00:28:49;3.63;;;2.10;;
71763;SDS011;59602;52.142;5.408;2023-08-12T00:31:16;5.35;;;2.60;;
71763;SDS011;59602;52.142;5.408;2023-08-12T00:33:43;3.80;;;1.73;;
71763;SDS011;59602;52.142;5.408;2023-08-12T00:36:26;4.93;;;2.15;;
71763;SDS011;59602;52.142;5.408;2023-08-12T00:38:53;5.27;;;1.83;;
71763;SDS011;59602;52.142;5.408;2023-08-12T00:41:20;4.35;;;1.95;;
71763;SDS011;59602;52.142;5.408;2023-08-12T00:43:46;5.40;;;2.17;;
71763;SDS011;59602;52.142;5.408;2023-08-12T00:46:13;4.88;;;2.35;;
71763;SDS011;59602;52.142;5.408;2023-08-12T00:48:40;4.07;;;1.90;;
71763;SDS011;59602;52.142;5.408;2023-08-12T00:51:07;3.70;;;2.27;;
71763;SDS011;59602;52.142;5.408;2023-08-12T00:53:34;5.43;;;2.30;;
71763;SDS011;59602;52.142;5.408;2023-08-12T00:56:00;5.57;;;2.28;;
71763;SDS011;59602;52.142;5.408;2023-08-12T00:58:27;6.90;;;2.40;;
71763;SDS011;59602;52.142;5.408;2023-08-12T01:00:54;7.50;;;2.70;;
71763;SDS011;59602;52.142;5.408;2023-08-12T01:03:21;4.53;;;2.10;;
71763;SDS011;59602;52.142;5.408;2023-08-12T01:05:50;6.03;;;2.33;;
71763;SDS011;59602;52.142;5.408;2023-08-12T01:08:17;7.00;;;3.00;;
71763;SDS011;59602;52.142;5.408;2023-08-12T01:10:49;5.43;;;2.70;;
71763;SDS011;59602;52.142;5.408;2023-08-12T01:13:32;5.18;;;2.85;;
71763;SDS011;59602;52.142;5.408;2023-08-12T01:16:09;6.63;;;2.40;;
71763;SDS011;59602;52.142;5.408;2023-08-12T01:18:39;4.38;;;2.03;;
71763;SDS011;59602;52.142;5.408;2023-08-12T01:21:29;5.75;;;2.90;;
71763;SDS011;59602;52.142;5.408;2023-08-12T01:24:04;5.10;;;2.58;;
71763;SDS011;59602;52.142;5.408;2023-08-12T01:26:36;6.35;;;2.65;;
71763;SDS011;59602;52.142;5.408;2023-08-12T01:29:03;7.20;;;2.83;;
71763;SDS011;59602;52.142;5.408;2023-08-12T01:31:32;5.50;;;2.60;;
71763;SDS011;59602;52.142;5.408;2023-08-12T01:34:16;6.18;;;2.30;;
71763;SDS011;59602;52.142;5.408;2023-08-12T01:36:58;5.38;;;2.95;;
71763;SDS011;59602;52.142;5.408;2023-08-12T01:39:28;6.05;;;2.58;;
71763;SDS011;59602;52.142;5.408;2023-08-12T01:41:57;6.13;;;2.93;;
71763;SDS011;59602;52.142;5.408;2023-08-12T01:44:27;5.68;;;2.38;;
71763;SDS011;59602;52.142;5.408;2023-08-12T01:46:54;6.30;;;2.70;;
71763;SDS011;59602;52.142;5.408;2023-08-12T01:49:21;5.80;;;2.92;;
71763;SDS011;59602;52.142;5.408;2023-08-12T01:51:49;6.20;;;3.05;;
71763;SDS011;59602;52.142;5.408;2023-08-12T01:54:16;5.47;;;3.13;;
71763;SDS011;59602;52.142;5.408;2023-08-12T01:56:42;7.82;;;2.97;;
71763;SDS011;59602;52.142;5.408;2023-08-12T01:59:09;6.22;;;2.83;;
71763;SDS011;59602;52.142;5.408;2023-08-12T02:01:36;6.72;;;3.70;;
71763;SDS011;59602;52.142;5.408;2023-08-12T02:04:03;6.85;;;3.53;;
71763;SDS011;59602;52.142;5.408;2023-08-12T02:06:30;6.47;;;3.30;;
71763;SDS011;59602;52.142;5.408;2023-08-12T02:08:56;7.03;;;3.60;;
71763;SDS011;59602;52.142;5.408;2023-08-12T02:11:23;10.90;;;3.90;;
71763;SDS011;59602;52.142;5.408;2023-08-12T02:13:49;5.80;;;3.47;;
71763;SDS011;59602;52.142;5.408;2023-08-12T02:16:16;8.23;;;4.10;;
71763;SDS011;59602;52.142;5.408;2023-08-12T02:18:45;8.40;;;3.67;;
71763;SDS011;59602;52.142;5.408;2023-08-12T02:21:12;7.88;;;3.60;;
71763;SDS011;59602;52.142;5.408;2023-08-12T02:23:44;7.32;;;3.78;;
71763;SDS011;59602;52.142;5.408;2023-08-12T02:26:10;7.15;;;3.90;;
71763;SDS011;59602;52.142;5.408;2023-08-12T02:28:37;7.80;;;4.28;;
71763;SDS011;59602;52.142;5.408;2023-08-12T02:31:04;8.80;;;3.90;;
71763;SDS011;59602;52.142;5.408;2023-08-12T02:33:30;7.10;;;3.83;;
71763;SDS011;59602;52.142;5.408;2023-08-12T02:35:57;8.80;;;4.43;;
71763;SDS011;59602;52.142;5.408;2023-08-12T02:38:24;7.63;;;4.05;;
71763;SDS011;59602;52.142;5.408;2023-08-12T02:40:51;7.65;;;3.90;;
71763;SDS011;59602;52.142;5.408;2023-08-12T02:43:17;7.10;;;4.10;;
71763;SDS011;59602;52.142;5.408;2023-08-12T02:45:44;7.95;;;4.05;;
71763;SDS011;59602;52.142;5.408;2023-08-12T02:48:11;7.07;;;3.90;;
71763;SDS011;59602;52.142;5.408;2023-08-12T02:50:38;11.20;;;4.72;;
71763;SDS011;59602;52.142;5.408;2023-08-12T02:53:05;8.50;;;4.07;;
71763;SDS011;59602;52.142;5.408;2023-08-12T02:55:35;8.70;;;4.33;;
71763;SDS011;59602;52.142;5.408;2023-08-12T02:58:05;9.15;;;4.05;;
71763;SDS011;59602;52.142;5.408;2023-08-12T03:00:31;8.38;;;4.25;;
71763;SDS011;59602;52.142;5.408;2023-08-12T03:02:58;7.93;;;4.38;;
71763;SDS011;59602;52.142;5.408;2023-08-12T03:05:25;10.38;;;4.40;;
71763;SDS011;59602;52.142;5.408;2023-08-12T03:07:51;8.00;;;3.80;;
71763;SDS011;59602;52.142;5.408;2023-08-12T03:10:18;10.00;;;4.63;;
71763;SDS011;59602;52.142;5.408;2023-08-12T03:12:45;10.15;;;4.82;;
71763;SDS011;59602;52.142;5.408;2023-08-12T03:15:11;9.60;;;4.68;;
71763;SDS011;59602;52.142;5.408;2023-08-12T03:17:38;9.05;;;4.95;;
71763;SDS011;59602;52.142;5.408;2023-08-12T03:20:08;9.43;;;4.43;;
71763;SDS011;59602;52.142;5.408;2023-08-12T03:22:36;9.77;;;4.70;;
71763;SDS011;59602;52.142;5.408;2023-08-12T03:25:03;8.98;;;4.47;;
71763;SDS011;59602;52.142;5.408;2023-08-12T03:27:31;9.70;;;4.85;;
71763;SDS011;59602;52.142;5.408;2023-08-12T03:29:57;9.95;;;4.75;;
71763;SDS011;59602;52.142;5.408;2023-08-12T03:32:24;10.03;;;4.80;;
71763;SDS011;59602;52.142;5.408;2023-08-12T03:34:52;10.02;;;5.18;;
71763;SDS011;59602;52.142;5.408;2023-08-12T03:37:19;9.60;;;4.80;;
71763;SDS011;59602;52.142;5.408;2023-08-12T03:39:45;10.32;;;5.18;;
71763;SDS011;59602;52.142;5.408;2023-08-12T03:42:13;11.38;;;4.65;;
71763;SDS011;59602;52.142;5.408;2023-08-12T03:44:43;11.33;;;5.00;;
71763;SDS011;59602;52.142;5.408;2023-08-12T03:47:10;9.32;;;5.45;;
71763;SDS011;59602;52.142;5.408;2023-08-12T03:49:38;8.52;;;4.90;;
71763;SDS011;59602;52.142;5.408;2023-08-12T03:52:04;8.40;;;4.68;;
71763;SDS011;59602;52.142;5.408;2023-08-12T03:54:33;10.05;;;5.10;;
71763;SDS011;59602;52.142;5.408;2023-08-12T03:57:01;11.40;;;5.53;;
71763;SDS011;59602;52.142;5.408;2023-08-12T03:59:49;17.13;;;5.80;;
71763;SDS011;59602;52.142;5.408;2023-08-12T04:02:16;10.55;;;5.38;;
71763;SDS011;59602;52.142;5.408;2023-08-12T04:04:42;10.98;;;5.63;;
71763;SDS011;59602;52.142;5.408;2023-08-12T04:07:10;9.40;;;5.32;;
71763;SDS011;59602;52.142;5.408;2023-08-12T04:09:38;11.73;;;5.20;;
71763;SDS011;59602;52.142;5.408;2023-08-12T04:12:05;8.80;;;4.88;;
71763;SDS011;59602;52.142;5.408;2023-08-12T04:14:32;11.95;;;5.60;;
71763;SDS011;59602;52.142;5.408;2023-08-12T04:16:58;12.48;;;6.78;;
71763;SDS011;59602;52.142;5.408;2023-08-12T04:19:25;13.40;;;6.32;;
71763;SDS011;59602;52.142;5.408;2023-08-12T04:22:18;11.53;;;6.13;;
71763;SDS011;59602;52.142;5.408;2023-08-12T04:24:48;10.70;;;6.15;;
71763;SDS011;59602;52.142;5.408;2023-08-12T04:27:15;12.38;;;7.07;;
71763;SDS011;59602;52.142;5.408;2023-08-12T04:29:43;12.95;;;7.13;;
71763;SDS011;59602;52.142;5.408;2023-08-12T04:32:12;13.20;;;7.28;;
71763;SDS011;59602;52.142;5.408;2023-08-12T04:34:46;11.73;;;7.20;;
71763;SDS011;59602;52.142;5.408;2023-08-12T04:37:14;12.30;;;6.55;;
71763;SDS011;59602;52.142;5.408;2023-08-12T04:39:44;12.15;;;6.32;;
71763;SDS011;59602;52.142;5.408;2023-08-12T04:42:11;17.05;;;7.28;;
71763;SDS011;59602;52.142;5.408;2023-08-12T04:44:38;13.93;;;7.05;;
71763;SDS011;59602;52.142;5.408;2023-08-12T04:47:05;12.73;;;6.93;;
71763;SDS011;59602;52.142;5.408;2023-08-12T04:49:34;11.77;;;6.57;;
71763;SDS011;59602;52.142;5.408;2023-08-12T04:52:01;11.15;;;6.82;;
71763;SDS011;59602;52.142;5.408;2023-08-12T04:54:31;13.55;;;7.63;;
71763;SDS011;59602;52.142;5.408;2023-08-12T04:57:16;11.77;;;6.72;;
71763;SDS011;59602;52.142;5.408;2023-08-12T05:00:46;12.67;;;7.70;;
71763;SDS011;59602;52.142;5.408;2023-08-12T05:03:47;13.80;;;8.70;;
71763;SDS011;59602;52.142;5.408;2023-08-12T05:06:54;12.40;;;8.10;;
71763;SDS011;59602;52.142;5.408;2023-08-12T05:09:21;13.90;;;8.18;;
71763;SDS011;59602;52.142;5.408;2023-08-12T05:11:50;13.82;;;8.60;;
71763;SDS011;59602;52.142;5.408;2023-08-12T05:14:17;12.80;;;7.37;;
71763;SDS011;59602;52.142;5.408;2023-08-12T05:16:44;13.32;;;8.32;;
71763;SDS011;59602;52.142;5.408;2023-08-12T05:19:11;16.02;;;8.50;;
71763;SDS011;59602;52.142;5.408;2023-08-12T05:21:40;16.60;;;8.05;;
71763;SDS011;59602;52.142;5.408;2023-08-12T05:24:50;12.73;;;8.13;;
71763;SDS011;59602;52.142;5.408;2023-08-12T05:27:17;13.17;;;8.00;;
71763;SDS011;59602;52.142;5.408;2023-08-12T05:29:44;16.33;;;7.88;;
71763;SDS011;59602;52.142;5.408;2023-08-12T05:32:27;13.40;;;7.60;;
71763;SDS011;59602;52.142;5.408;2023-08-12T05:34:56;13.65;;;8.07;;
71763;SDS011;59602;52.142;5.408;2023-08-12T05:37:23;14.38;;;7.55;;
71763;SDS011;59602;52.142;5.408;2023-08-12T05:39:49;15.60;;;7.40;;
71763;SDS011;59602;52.142;5.408;2023-08-12T05:42:22;15.95;;;7.80;;
71763;SDS011;59602;52.142;5.408;2023-08-12T05:44:49;13.98;;;7.40;;
71763;SDS011;59602;52.142;5.408;2023-08-12T05:47:15;13.73;;;8.10;;
71763;SDS011;59602;52.142;5.408;2023-08-12T05:52:22;14.03;;;7.73;;
71763;SDS011;59602;52.142;5.408;2023-08-12T05:55:08;12.98;;;6.80;;
71763;SDS011;59602;52.142;5.408;2023-08-12T05:57:37;13.50;;;7.13;;
71763;SDS011;59602;52.142;5.408;2023-08-12T06:00:04;14.05;;;7.63;;
71763;SDS011;59602;52.142;5.408;2023-08-12T06:05:17;11.33;;;7.03;;
71763;SDS011;59602;52.142;5.408;2023-08-12T06:07:44;13.38;;;7.25;;
71763;SDS011;59602;52.142;5.408;2023-08-12T06:10:10;13.23;;;7.30;;
71763;SDS011;59602;52.142;5.408;2023-08-12T06:12:37;12.18;;;7.85;;
71763;SDS011;59602;52.142;5.408;2023-08-12T06:15:04;13.20;;;7.65;;
71763;SDS011;59602;52.142;5.408;2023-08-12T06:17:31;15.47;;;7.57;;
71763;SDS011;59602;52.142;5.408;2023-08-12T06:19:57;10.90;;;7.32;;
71763;SDS011;59602;52.142;5.408;2023-08-12T06:22:24;12.90;;;7.57;;
71763;SDS011;59602;52.142;5.408;2023-08-12T06:24:51;11.50;;;7.13;;
71763;SDS011;59602;52.142;5.408;2023-08-12T06:27:17;13.25;;;6.97;;
71763;SDS011;59602;52.142;5.408;2023-08-12T06:29:47;12.17;;;7.37;;
71763;SDS011;59602;52.142;5.408;2023-08-12T06:32:13;11.70;;;7.40;;
71763;SDS011;59602;52.142;5.408;2023-08-12T06:34:41;13.50;;;7.95;;
71763;SDS011;59602;52.142;5.408;2023-08-12T06:37:07;12.38;;;7.78;;
71763;SDS011;59602;52.142;5.408;2023-08-12T06:39:34;10.07;;;6.68;;
71763;SDS011;59602;52.142;5.408;2023-08-12T06:42:01;12.03;;;7.23;;
71763;SDS011;59602;52.142;5.408;2023-08-12T06:44:27;10.32;;;6.65;;
71763;SDS011;59602;52.142;5.408;2023-08-12T06:46:54;9.65;;;6.25;;
71763;SDS011;59602;52.142;5.408;2023-08-12T06:49:21;11.63;;;7.28;;
71763;SDS011;59602;52.142;5.408;2023-08-12T06:51:47;8.13;;;5.13;;
71763;SDS011;59602;52.142;5.408;2023-08-12T06:54:32;7.20;;;4.27;;
71763;SDS011;59602;52.142;5.408;2023-08-12T06:56:59;9.48;;;4.10;;
71763;SDS011;59602;52.142;5.408;2023-08-12T06:59:26;7.05;;;3.90;;
71763;SDS011;59602;52.142;5.408;2023-08-12T07:01:53;7.00;;;4.50;;
71763;SDS011;59602;52.142;5.408;2023-08-12T07:04:19;9.25;;;4.57;;
71763;SDS011;59602;52.142;5.408;2023-08-12T07:06:46;5.23;;;3.23;;
71763;SDS011;59602;52.142;5.408;2023-08-12T07:09:13;5.75;;;3.40;;
71763;SDS011;59602;52.142;5.408;2023-08-12T07:11:40;4.95;;;3.25;;
71763;SDS011;59602;52.142;5.408;2023-08-12T07:14:07;7.47;;;3.78;;
71763;SDS011;59602;52.142;5.408;2023-08-12T07:16:34;7.35;;;3.38;;
71763;SDS011;59602;52.142;5.408;2023-08-12T07:19:01;5.97;;;3.10;;
71763;SDS011;59602;52.142;5.408;2023-08-12T07:21:27;5.80;;;3.47;;
71763;SDS011;59602;52.142;5.408;2023-08-12T07:23:54;4.13;;;2.42;;
71763;SDS011;59602;52.142;5.408;2023-08-12T07:26:29;4.05;;;2.35;;
71763;SDS011;59602;52.142;5.408;2023-08-12T07:28:56;6.45;;;2.28;;
71763;SDS011;59602;52.142;5.408;2023-08-12T07:31:23;3.87;;;2.30;;
71763;SDS011;59602;52.142;5.408;2023-08-12T07:33:50;4.20;;;2.28;;
71763;SDS011;59602;52.142;5.408;2023-08-12T07:36:17;4.75;;;2.17;;
71763;SDS011;59602;52.142;5.408;2023-08-12T07:38:44;2.58;;;1.80;;
71763;SDS011;59602;52.142;5.408;2023-08-12T07:41:11;3.70;;;1.90;;
71763;SDS011;59602;52.142;5.408;2023-08-12T07:43:37;3.53;;;1.80;;
71763;SDS011;59602;52.142;5.408;2023-08-12T07:46:04;2.80;;;1.65;;
71763;SDS011;59602;52.142;5.408;2023-08-12T07:48:42;2.65;;;1.55;;
71763;SDS011;59602;52.142;5.408;2023-08-12T07:51:08;3.45;;;1.80;;
71763;SDS011;59602;52.142;5.408;2023-08-12T07:53:36;4.35;;;1.70;;
71763;SDS011;59602;52.142;5.408;2023-08-12T07:56:03;3.33;;;1.77;;
71763;SDS011;59602;52.142;5.408;2023-08-12T07:58:29;3.05;;;1.80;;
71763;SDS011;59602;52.142;5.408;2023-08-12T08:00:56;3.33;;;1.67;;
71763;SDS011;59602;52.142;5.408;2023-08-12T08:03:23;2.97;;;1.75;;
71763;SDS011;59602;52.142;5.408;2023-08-12T08:05:49;3.08;;;1.80;;
71763;SDS011;59602;52.142;5.408;2023-08-12T08:08:16;3.13;;;1.60;;
71763;SDS011;59602;52.142;5.408;2023-08-12T08:10:43;3.63;;;1.85;;
71763;SDS011;59602;52.142;5.408;2023-08-12T08:13:10;4.07;;;1.60;;
71763;SDS011;59602;52.142;5.408;2023-08-12T08:15:37;3.53;;;1.70;;
71763;SDS011;59602;52.142;5.408;2023-08-12T08:18:04;2.88;;;1.30;;
71763;SDS011;59602;52.142;5.408;2023-08-12T08:20:33;1.90;;;1.13;;
71763;SDS011;59602;52.142;5.408;2023-08-12T08:23:00;2.85;;;1.70;;
71763;SDS011;59602;52.142;5.408;2023-08-12T08:25:27;2.40;;;1.30;;
71763;SDS011;59602;52.142;5.408;2023-08-12T08:27:54;1.92;;;1.20;;
71763;SDS011;59602;52.142;5.408;2023-08-12T08:30:20;2.72;;;1.25;;
71763;SDS011;59602;52.142;5.408;2023-08-12T08:32:49;2.17;;;1.30;;
71763;SDS011;59602;52.142;5.408;2023-08-12T08:35:15;1.85;;;0.98;;
71763;SDS011;59602;52.142;5.408;2023-08-12T08:37:42;2.63;;;0.95;;
71763;SDS011;59602;52.142;5.408;2023-08-12T08:40:09;1.60;;;0.80;;
71763;SDS011;59602;52.142;5.408;2023-08-12T08:42:37;2.10;;;0.80;;
71763;SDS011;59602;52.142;5.408;2023-08-12T08:45:04;1.80;;;0.93;;
71763;SDS011;59602;52.142;5.408;2023-08-12T08:47:38;1.40;;;0.88;;
71763;SDS011;59602;52.142;5.408;2023-08-12T08:50:07;1.10;;;0.50;;
71763;SDS011;59602;52.142;5.408;2023-08-12T08:52:35;1.30;;;0.50;;
71763;SDS011;59602;52.142;5.408;2023-08-12T08:55:04;3.70;;;1.00;;
71763;SDS011;59602;52.142;5.408;2023-08-12T08:57:33;2.37;;;0.67;;
71763;SDS011;59602;52.142;5.408;2023-08-12T09:00:04;1.50;;;0.65;;
71763;SDS011;59602;52.142;5.408;2023-08-12T09:02:43;1.38;;;0.50;;
71763;SDS011;59602;52.142;5.408;2023-08-12T09:05:11;1.00;;;0.40;;
71763;SDS011;59602;52.142;5.408;2023-08-12T09:07:39;1.00;;;0.30;;
71763;SDS011;59602;52.142;5.408;2023-08-12T09:10:07;1.77;;;0.30;;
71763;SDS011;59602;52.142;5.408;2023-08-12T09:12:35;1.58;;;0.30;;
71763;SDS011;59602;52.142;5.408;2023-08-12T09:15:03;1.75;;;0.25;;
71763;SDS011;59602;52.142;5.408;2023-08-12T09:17:30;2.13;;;0.30;;
71763;SDS011;59602;52.142;5.408;2023-08-12T09:19:59;3.25;;;0.30;;
71763;SDS011;59602;52.142;5.408;2023-08-12T09:22:26;1.60;;;0.40;;
71763;SDS011;59602;52.142;5.408;2023-08-12T09:24:56;1.52;;;0.30;;
71763;SDS011;59602;52.142;5.408;2023-08-12T09:27:24;2.53;;;0.30;;
71763;SDS011;59602;52.142;5.408;2023-08-12T09:29:55;2.88;;;0.30;;
71763;SDS011;59602;52.142;5.408;2023-08-12T09:32:24;2.17;;;0.30;;
71763;SDS011;59602;52.142;5.408;2023-08-12T09:34:54;2.67;;;0.30;;
71763;SDS011;59602;52.142;5.408;2023-08-12T09:37:23;2.00;;;0.55;;
71763;SDS011;59602;52.142;5.408;2023-08-12T09:39:51;2.75;;;0.40;;
71763;SDS011;59602;52.142;5.408;2023-08-12T09:42:18;3.38;;;0.50;;
71763;SDS011;59602;52.142;5.408;2023-08-12T09:44:45;1.83;;;0.43;;
71763;SDS011;59602;52.142;5.408;2023-08-12T09:47:18;3.10;;;0.70;;
71763;SDS011;59602;52.142;5.408;2023-08-12T09:49:45;4.72;;;0.65;;
71763;SDS011;59602;52.142;5.408;2023-08-12T09:52:12;2.38;;;0.57;;
71763;SDS011;59602;52.142;5.408;2023-08-12T09:54:53;3.75;;;0.57;;
71763;SDS011;59602;52.142;5.408;2023-08-12T09:57:48;4.32;;;0.60;;
71763;SDS011;59602;52.142;5.408;2023-08-12T10:00:20;3.10;;;0.57;;
71763;SDS011;59602;52.142;5.408;2023-08-12T10:02:51;5.40;;;0.68;;
71763;SDS011;59602;52.142;5.408;2023-08-12T10:05:27;2.55;;;0.57;;
71763;SDS011;59602;52.142;5.408;2023-08-12T10:07:54;2.45;;;0.63;;
71763;SDS011;59602;52.142;5.408;2023-08-12T10:10:21;4.10;;;0.70;;
71763;SDS011;59602;52.142;5.408;2023-08-12T10:12:51;3.90;;;0.47;;
71763;SDS011;59602;52.142;5.408;2023-08-12T10:15:17;3.47;;;0.60;;
71763;SDS011;59602;52.142;5.408;2023-08-12T10:17:45;2.80;;;0.70;;
71763;SDS011;59602;52.142;5.408;2023-08-12T10:20:13;2.42;;;0.50;;
71763;SDS011;59602;52.142;5.408;2023-08-12T10:22:54;2.65;;;0.52;;
71763;SDS011;59602;52.142;5.408;2023-08-12T10:25:22;5.83;;;0.77;;
71763;SDS011;59602;52.142;5.408;2023-08-12T10:27:51;2.63;;;0.50;;
71763;SDS011;59602;52.142;5.408;2023-08-12T10:30:36;2.95;;;0.40;;
71763;SDS011;59602;52.142;5.408;2023-08-12T10:33:03;2.47;;;0.45;;
71763;SDS011;59602;52.142;5.408;2023-08-12T10:38:26;2.30;;;0.40;;
71763;SDS011;59602;52.142;5.408;2023-08-12T10:40:53;2.20;;;0.73;;
71763;SDS011;59602;52.142;5.408;2023-08-12T10:46:22;5.13;;;0.65;;
71763;SDS011;59602;52.142;5.408;2023-08-12T10:48:57;3.38;;;0.50;;
71763;SDS011;59602;52.142;5.408;2023-08-12T10:54:25;4.72;;;0.60;;
71763;SDS011;59602;52.142;5.408;2023-08-12T11:02:13;5.00;;;0.80;;
71763;SDS011;59602;52.142;5.408;2023-08-12T11:04:56;3.13;;;0.80;;
71763;SDS011;59602;52.142;5.408;2023-08-12T11:07:28;3.83;;;0.60;;
71763;SDS011;59602;52.142;5.408;2023-08-12T11:09:58;6.40;;;1.10;;
71763;SDS011;59602;52.142;5.408;2023-08-12T11:12:31;3.20;;;0.80;;
71763;SDS011;59602;52.142;5.408;2023-08-12T11:15:01;3.25;;;0.80;;
71763;SDS011;59602;52.142;5.408;2023-08-12T11:17:34;5.63;;;0.90;;
71763;SDS011;59602;52.142;5.408;2023-08-12T11:20:03;7.68;;;0.80;;
71763;SDS011;59602;52.142;5.408;2023-08-12T11:22:34;5.72;;;0.90;;
71763;SDS011;59602;52.142;5.408;2023-08-12T11:25:04;4.32;;;1.00;;
71763;SDS011;59602;52.142;5.408;2023-08-12T11:27:51;4.97;;;0.93;;
71763;SDS011;59602;52.142;5.408;2023-08-12T11:30:18;3.50;;;0.67;;
71763;SDS011;59602;52.142;5.408;2023-08-12T11:32:47;3.60;;;0.80;;
71763;SDS011;59602;52.142;5.408;2023-08-12T11:35:15;4.03;;;0.80;;
71763;SDS011;59602;52.142;5.408;2023-08-12T11:37:43;3.42;;;0.50;;
71763;SDS011;59602;52.142;5.408;2023-08-12T11:40:12;4.55;;;0.80;;
71763;SDS011;59602;52.142;5.408;2023-08-12T11:42:42;3.17;;;0.73;;
71763;SDS011;59602;52.142;5.408;2023-08-12T11:45:11;4.22;;;0.68;;
71763;SDS011;59602;52.142;5.408;2023-08-12T11:47:39;2.97;;;0.90;;
71763;SDS011;59602;52.142;5.408;2023-08-12T11:50:08;4.80;;;0.70;;
71763;SDS011;59602;52.142;5.408;2023-08-12T11:53:06;3.80;;;0.63;;
71763;SDS011;59602;52.142;5.408;2023-08-12T11:55:33;3.77;;;1.03;;
71763;SDS011;59602;52.142;5.408;2023-08-12T11:58:00;3.40;;;0.60;;
71763;SDS011;59602;52.142;5.408;2023-08-12T12:00:30;4.05;;;0.90;;
71763;SDS011;59602;52.142;5.408;2023-08-12T12:03:01;2.70;;;0.60;;
71763;SDS011;59602;52.142;5.408;2023-08-12T12:05:55;4.43;;;0.70;;
71763;SDS011;59602;52.142;5.408;2023-08-12T12:08:25;3.53;;;0.50;;
71763;SDS011;59602;52.142;5.408;2023-08-12T12:11:10;2.70;;;0.80;;
71763;SDS011;59602;52.142;5.408;2023-08-12T12:13:37;4.63;;;0.70;;
71763;SDS011;59602;52.142;5.408;2023-08-12T12:16:09;3.10;;;0.65;;
71763;SDS011;59602;52.142;5.408;2023-08-12T12:18:37;3.80;;;0.68;;
71763;SDS011;59602;52.142;5.408;2023-08-12T12:21:05;1.50;;;0.50;;
71763;SDS011;59602;52.142;5.408;2023-08-12T12:23:31;3.58;;;0.80;;
71763;SDS011;59602;52.142;5.408;2023-08-12T12:25:58;6.43;;;0.80;;
71763;SDS011;59602;52.142;5.408;2023-08-12T12:28:27;5.65;;;1.25;;
71763;SDS011;59602;52.142;5.408;2023-08-12T12:30:54;3.88;;;0.77;;
71763;SDS011;59602;52.142;5.408;2023-08-12T12:33:23;4.40;;;0.67;;
71763;SDS011;59602;52.142;5.408;2023-08-12T12:35:51;5.90;;;0.70;;
71763;SDS011;59602;52.142;5.408;2023-08-12T12:38:25;4.82;;;0.80;;
71763;SDS011;59602;52.142;5.408;2023-08-12T12:40:52;3.85;;;0.40;;
71763;SDS011;59602;52.142;5.408;2023-08-12T12:43:18;6.15;;;0.80;;
71763;SDS011;59602;52.142;5.408;2023-08-12T12:45:45;4.87;;;0.57;;
71763;SDS011;59602;52.142;5.408;2023-08-12T12:48:12;3.78;;;0.80;;
71763;SDS011;59602;52.142;5.408;2023-08-12T12:50:39;4.03;;;0.80;;
71763;SDS011;59602;52.142;5.408;2023-08-12T12:53:05;4.30;;;0.52;;
71763;SDS011;59602;52.142;5.408;2023-08-12T12:55:35;3.90;;;0.60;;
71763;SDS011;59602;52.142;5.408;2023-08-12T12:58:01;3.97;;;0.77;;
71763;SDS011;59602;52.142;5.408;2023-08-12T13:00:53;5.85;;;0.93;;
71763;SDS011;59602;52.142;5.408;2023-08-12T13:03:20;5.20;;;0.90;;
71763;SDS011;59602;52.142;5.408;2023-08-12T13:05:47;6.50;;;0.70;;
71763;SDS011;59602;52.142;5.408;2023-08-12T13:08:14;3.65;;;0.60;;
71763;SDS011;59602;52.142;5.408;2023-08-12T13:10:41;3.43;;;0.60;;
71763;SDS011;59602;52.142;5.408;2023-08-12T13:13:07;5.57;;;0.80;;
71763;SDS011;59602;52.142;5.408;2023-08-12T13:15:35;4.53;;;0.70;;
71763;SDS011;59602;52.142;5.408;2023-08-12T13:18:02;5.70;;;0.73;;
71763;SDS011;59602;52.142;5.408;2023-08-12T13:20:29;3.08;;;0.52;;
71763;SDS011;59602;52.142;5.408;2023-08-12T13:22:59;2.93;;;0.80;;
71763;SDS011;59602;52.142;5.408;2023-08-12T13:25:34;5.68;;;0.80;;
71763;SDS011;59602;52.142;5.408;2023-08-12T13:28:02;4.78;;;0.77;;
71763;SDS011;59602;52.142;5.408;2023-08-12T13:30:34;4.32;;;0.85;;
71763;SDS011;59602;52.142;5.408;2023-08-12T13:33:02;4.75;;;0.90;;
71763;SDS011;59602;52.142;5.408;2023-08-12T13:35:29;4.60;;;0.80;;
71763;SDS011;59602;52.142;5.408;2023-08-12T13:37:58;5.80;;;0.80;;
71763;SDS011;59602;52.142;5.408;2023-08-12T13:40:25;6.72;;;1.00;;
71763;SDS011;59602;52.142;5.408;2023-08-12T13:42:55;2.85;;;0.63;;
71763;SDS011;59602;52.142;5.408;2023-08-12T13:45:22;7.03;;;0.85;;
71763;SDS011;59602;52.142;5.408;2023-08-12T13:47:52;5.07;;;0.90;;
71763;SDS011;59602;52.142;5.408;2023-08-12T13:50:19;4.60;;;0.90;;
71763;SDS011;59602;52.142;5.408;2023-08-12T13:52:49;3.22;;;0.90;;
71763;SDS011;59602;52.142;5.408;2023-08-12T13:55:18;5.13;;;0.70;;
71763;SDS011;59602;52.142;5.408;2023-08-12T13:57:45;3.70;;;1.00;;
71763;SDS011;59602;52.142;5.408;2023-08-12T14:00:11;4.00;;;0.83;;
71763;SDS011;59602;52.142;5.408;2023-08-12T14:02:40;5.63;;;0.77;;
71763;SDS011;59602;52.142;5.408;2023-08-12T14:05:07;4.47;;;1.17;;
71763;SDS011;59602;52.142;5.408;2023-08-12T14:07:34;4.78;;;0.68;;
71763;SDS011;59602;52.142;5.408;2023-08-12T14:10:01;3.58;;;0.63;;
71763;SDS011;59602;52.142;5.408;2023-08-12T14:12:27;5.03;;;1.03;;
71763;SDS011;59602;52.142;5.408;2023-08-12T14:14:54;5.40;;;0.70;;
71763;SDS011;59602;52.142;5.408;2023-08-12T14:17:21;6.60;;;0.90;;
71763;SDS011;59602;52.142;5.408;2023-08-12T14:20:02;3.45;;;0.60;;
71763;SDS011;59602;52.142;5.408;2023-08-12T14:22:31;4.53;;;0.50;;
71763;SDS011;59602;52.142;5.408;2023-08-12T14:25:06;21.07;;;3.43;;
71763;SDS011;59602;52.142;5.408;2023-08-12T14:31:26;25.92;;;12.98;;
71763;SDS011;59602;52.142;5.408;2023-08-12T14:34:45;16.10;;;6.60;;
71763;SDS011;59602;52.142;5.408;2023-08-12T14:37:21;9.13;;;3.45;;
71763;SDS011;59602;52.142;5.408;2023-08-12T14:43:25;32.42;;;16.25;;
71763;SDS011;59602;52.142;5.408;2023-08-12T14:46:01;9.32;;;2.25;;
71763;SDS011;59602;52.142;5.408;2023-08-12T14:48:57;10.15;;;2.75;;
71763;SDS011;59602;52.142;5.408;2023-08-12T14:51:26;6.72;;;1.17;;
71763;SDS011;59602;52.142;5.408;2023-08-12T14:54:24;14.23;;;4.93;;
71763;SDS011;59602;52.142;5.408;2023-08-12T15:00:25;7.90;;;2.05;;
71763;SDS011;59602;52.142;5.408;2023-08-12T15:02:53;7.22;;;1.63;;
71763;SDS011;59602;52.142;5.408;2023-08-12T15:05:20;7.15;;;1.20;;
71763;SDS011;59602;52.142;5.408;2023-08-12T15:07:49;6.60;;;0.97;;
71763;SDS011;59602;52.142;5.408;2023-08-12T15:14:19;6.32;;;1.17;;
71763;SDS011;59602;52.142;5.408;2023-08-12T15:25:35;7.05;;;1.33;;
71763;SDS011;59602;52.142;5.408;2023-08-12T15:28:05;3.97;;;1.13;;
71763;SDS011;59602;52.142;5.408;2023-08-12T15:30:49;5.03;;;1.35;;
71763;SDS011;59602;52.142;5.408;2023-08-12T15:33:16;7.65;;;0.90;;
71763;SDS011;59602;52.142;5.408;2023-08-12T15:35:45;3.50;;;0.80;;
71763;SDS011;59602;52.142;5.408;2023-08-12T15:38:12;5.00;;;0.90;;
71763;SDS011;59602;52.142;5.408;2023-08-12T15:40:39;4.97;;;1.02;;
71763;SDS011;59602;52.142;5.408;2023-08-12T15:43:26;5.18;;;0.98;;
71763;SDS011;59602;52.142;5.408;2023-08-12T15:46:37;5.22;;;1.27;;